Latest Weather Observations for Adelaide

IDS60801

Issued at 4:01 pm CST Sunday 28 May 2017 (issued every 30 minutes, with the page automatically refreshed every 10 minutes)

About weather observations | Map of weather stations | Latest weather observations for SA | Other Formats
Station Details ID: 023090 Name: KENT TOWN Lat: -34.92 Lon: 138.62 Height: 48.0 m
Data from the previous 72 hours. | See also: Recent months at Adelaide
Date/Time
CST
Temp
°C
App
Temp
°C
Dew
Point
°C
Rel
Hum
%
Delta-T
°C
Wind Press
QNH
hPa
Press
MSL
hPa
Rain since
9am
mm
Dir  Spd
km/h
Gust
km/h
Spd
kts
Gust
kts
28/04:00pm 14.0 9.9 6.3 60 3.7 SW 17 28 9 15 1016.4 1016.4 3.2
28/03:30pm 13.0 10.6 8.6 74 2.2 SW 11 24 6 13 1016.2 1016.2 3.2
28/03:00pm 14.9 10.5 6.7 58 4.0 WSW 19 32 10 17 1015.8 1015.8 3.2
28/02:30pm 14.6 10.2 7.5 62 3.5 SW 20 30 11 16 1015.7 1015.7 3.2
28/02:00pm 14.8 11.3 8.7 67 3.1 SW 17 30 9 16 1015.6 1015.6 3.2
28/01:30pm 13.0 9.2 9.0 77 2.0 SW 19 33 10 18 1015.7 1015.7 3.2
28/01:00pm 14.6 9.4 7.3 61 3.6 WSW 24 37 13 20 1015.4 1015.4 3.2
28/12:30pm 14.2 9.9 8.0 66 3.1 WSW 20 32 11 17 1015.4 1015.4 3.2
28/12:00pm 13.1 10.1 10.8 86 1.2 WSW 17 28 9 15 1015.7 1015.7 3.2
28/11:30am 12.5 9.1 10.6 88 1.0 WSW 19 37 10 20 1016.0 1016.0 2.2
28/11:00am 14.2 11.4 10.0 76 2.2 WSW 15 28 8 15 1016.0 1016.0 1.6
28/10:30am 12.1 9.7 9.9 86 1.1 WSW 13 24 7 13 1016.2 1016.2 1.6
28/10:00am 11.9 9.5 10.1 89 0.9 WSW 13 22 7 12 1016.1 1016.1 1.2
28/09:30am 13.0 10.3 10.3 84 1.4 W 15 26 8 14 1015.6 1015.6 0.6
28/09:00am 11.5 9.0 9.7 89 0.9 SW 13 28 7 15 1015.5 1015.5 16.6
28/08:30am 11.2 10.2 9.0 86 1.1 SSE 4 9 2 5 1015.0 1015.0 15.4
28/08:00am 10.7 10.5 8.9 89 0.9 CALM 0 0 0 0 1015.0 1015.0 15.4
28/07:30am 10.6 7.6 7.9 83 1.3 WSW 13 22 7 12 1014.8 1014.8 15.4
28/07:00am 11.1 7.8 8.2 82 1.4 W 15 28 8 15 1014.4 1014.4 15.0
28/06:30am 10.5 8.8 8.5 87 1.0 W 7 11 4 6 1014.1 1014.1 15.0
28/06:00am 10.7 8.8 8.9 89 0.9 W 9 19 5 10 1014.1 1014.1 15.0
28/05:30am 10.5 8.9 8.9 90 0.8 WNW 7 13 4 7 1014.0 1014.0 15.0
28/05:00am 10.5 7.7 8.5 87 1.0 W 13 22 7 12 1013.8 1013.8 15.0
28/04:30am 9.7 9.0 8.5 92 0.6 NNE 2 7 1 4 1013.7 1013.7 13.8
28/04:00am 9.8 8.7 8.6 92 0.6 SSE 4 7 2 4 1013.7 1013.7 13.8
28/03:30am 10.7 7.8 8.2 84 1.2 SW 13 24 7 13 1014.0 1014.0 13.8
28/03:00am 11.7 8.4 8.0 78 1.8 SW 15 28 8 15 1013.8 1013.8 13.6
28/02:30am 11.5 7.7 8.9 84 1.3 WSW 19 32 10 17 1013.9 1013.9 13.6
28/02:00am 11.4 9.1 9.0 85 1.2 W 11 19 6 10 1013.9 1013.9 13.4
28/01:30am 10.7 9.1 8.9 89 0.9 WSW 7 13 4 7 1014.1 1014.1 13.4
28/01:00am 10.9 9.0 9.1 89 0.9 WSW 9 17 5 9 1014.3 1014.3 13.4
28/12:30am 10.7 8.3 8.7 87 1.0 W 11 17 6 9 1014.3 1014.3 13.2
28/12:00am 11.2 7.9 9.6 90 0.8 W 17 30 9 16 1014.0 1014.0 11.8
 
Date/Time
CST
Temp
°C
App
Temp
°C
Dew
Point
°C
Rel
Hum
%
Delta-T
°C
Wind Press
QNH
hPa
Press
MSL
hPa
Rain since
9am
mm
Dir  Spd
km/h
Gust
km/h
Spd
kts
Gust
kts
27/11:30pm 11.3 10.0 10.1 92 0.6 SSE 7 15 4 8 1014.1 1014.1 10.4
27/11:00pm 11.0 9.3 9.8 92 0.6 WSW 9 20 5 11 1014.1 1014.1 10.0
27/10:30pm 12.5 10.0 9.6 82 1.5 W 13 32 7 17 1014.1 1014.1 9.0
27/10:00pm 12.3 10.0 10.6 89 0.9 WSW 13 28 7 15 1013.8 1013.8 9.0
27/09:30pm 12.4 10.4 10.1 86 1.2 W 11 20 6 11 1013.6 1013.6 8.6
27/09:00pm 12.4 10.9 10.7 89 0.9 WSW 9 19 5 10 1013.4 1013.4 8.6
27/08:30pm 12.7 13.3 11.8 94 0.5 CALM 0 0 0 0 1012.9 1012.9 8.6
27/08:00pm 12.7 11.2 12.0 95 0.4 SW 11 17 6 9 1012.9 1012.9 8.6
27/07:30pm 12.5 9.8 11.7 95 0.4 SW 17 28 9 15 1013.0 1013.0 8.4
27/07:00pm 13.2 13.0 11.7 91 0.8 NNW 4 7 2 4 1012.6 1012.6 2.2
27/06:30pm 13.1 12.7 11.2 88 1.0 SSE 4 11 2 6 1012.2 1012.2 2.2
27/06:00pm 13.2 10.2 10.7 85 1.3 WSW 17 30 9 16 1012.6 1012.6 1.8
27/05:30pm 14.9 11.9 12.0 83 1.6 WSW 19 32 10 17 1012.0 1012.0 1.2
27/05:00pm 15.8 13.4 12.7 82 1.7 W 17 28 9 15 1011.4 1011.4 1.2
27/04:30pm 16.3 15.2 13.1 81 1.8 WNW 11 20 6 11 1011.0 1011.0 1.2
27/04:00pm 16.3 16.1 13.5 83 1.6 WNW 7 13 4 7 1011.1 1011.1 1.0
27/03:30pm 18.1 16.0 11.3 64 3.7 NW 13 20 7 11 1011.1 1011.1 0.2
27/03:00pm 19.5 16.5 9.3 51 5.4 NW 15 24 8 13 1011.0 1011.0 0.0
27/02:30pm 20.1 17.5 9.4 50 5.7 NW 13 24 7 13 1011.1 1011.1 0.0
27/02:00pm 19.8 16.0 9.0 49 5.7 NW 19 30 10 16 1011.5 1011.5 0.0
27/01:30pm 19.6 15.4 8.2 47 5.9 NW 20 32 11 17 1011.7 1011.7 0.0
27/01:00pm 20.2 16.7 8.8 48 6.0 NW 17 30 9 16 1012.1 1012.1 0.0
27/12:30pm 19.9 16.7 8.6 48 5.9 NW 15 26 8 14 1012.4 1012.4 0.0
27/12:00pm 19.2 15.0 8.2 49 5.7 NW 20 35 11 19 1013.0 1013.0 0.0
27/11:30am 19.4 15.6 7.7 46 6.0 NNW 17 37 9 20 1013.6 1013.6 0.0
27/11:00am 18.7 14.6 8.0 49 5.5 N 19 32 10 17 1014.0 1014.0 0.0
27/10:30am 17.8 14.0 7.5 51 5.2 NNW 17 30 9 16 1014.3 1014.3 0.0
27/10:00am 16.9 13.4 7.3 53 4.8 N 15 26 8 14 1014.6 1014.6 0.0
27/09:30am 15.5 11.7 7.5 59 4.0 N 17 28 9 15 1014.8 1014.8 0.0
27/09:00am 15.0 11.2 7.5 61 3.7 NNE 17 26 9 14 1015.1 1015.1 0.0
27/08:30am 14.7 11.7 7.6 62 3.5 NNE 13 22 7 12 1015.2 1015.2 0.0
27/08:00am 14.3 11.6 7.4 63 3.4 NNE 11 17 6 9 1015.3 1015.3 0.0
27/07:30am 14.1 12.0 8.1 67 3.0 NNE 9 17 5 9 1015.3 1015.3 0.0
27/07:00am 15.2 11.5 6.1 54 4.4 N 15 24 8 13 1015.0 1015.0 0.0
27/06:30am 15.3 12.7 6.0 54 4.5 NNE 9 17 5 9 1014.9 1014.9 0.0
27/06:00am 15.1 12.5 6.2 55 4.3 NE 9 15 5 8 1014.6 1014.6 0.0
27/05:30am 14.9 12.9 6.2 56 4.2 NNE 6 13 3 7 1014.8 1014.8 0.0
27/05:00am 14.9 12.7 6.2 56 4.2 NE 7 13 4 7 1014.9 1014.9 0.0
27/04:30am 14.4 12.2 6.1 57 4.0 ENE 7 15 4 8 1015.2 1015.2 0.0
27/04:00am 13.2 11.1 6.0 61 3.4 ENE 6 9 3 5 1015.4 1015.4 0.0
27/03:30am 13.2 11.6 6.3 63 3.3 NE 4 9 2 5 1015.7 1015.7 0.0
27/03:00am 13.3 11.2 5.9 61 3.5 NE 6 9 3 5 1015.8 1015.8 0.0
27/02:30am 13.6 11.4 6.0 60 3.6 NNE 7 13 4 7 1015.9 1015.9 0.0
27/02:00am 13.8 11.8 6.3 60 3.6 NNE 6 11 3 6 1015.8 1015.8 0.0
27/01:30am 14.0 11.8 6.0 58 3.8 NE 7 13 4 7 1016.2 1016.2 0.0
27/01:00am 13.4 11.8 6.3 62 3.4 NE 4 7 2 4 1016.5 1016.5 0.0
27/12:30am 14.0 11.9 6.0 58 3.8 NNE 6 9 3 5 1016.9 1016.9 0.0
27/12:00am 13.5 11.9 6.2 61 3.5 NE 4 11 2 6 1017.1 1017.1 0.0
 
Date/Time
CST
Temp
°C
App
Temp
°C
Dew
Point
°C
Rel
Hum
%
Delta-T
°C
Wind Press
QNH
hPa
Press
MSL
hPa
Rain since
9am
mm
Dir  Spd
km/h
Gust
km/h
Spd
kts
Gust
kts
26/11:30pm 13.1 10.9 6.4 64 3.2 NNE 7 9 4 5 1017.2 1017.2 0.0
26/11:00pm 12.4 10.4 6.3 66 2.9 NNE 6 9 3 5 1017.3 1017.3 0.0
26/10:30pm 11.7 11.0 7.1 73 2.2 CALM 0 0 0 0 1017.5 1017.5 0.0
26/10:00pm 11.7 11.1 7.3 74 2.1 CALM 0 0 0 0 1017.8 1017.8 0.0
26/09:30pm 12.1 11.5 7.3 72 2.3 CALM 0 0 0 0 1017.9 1017.9 0.0
26/09:00pm 12.7 12.2 7.8 72 2.4 CALM 0 0 0 0 1017.8 1017.8 0.0
26/08:30pm 13.4 12.8 7.2 66 3.0 CALM 0 0 0 0 1017.9 1017.9 0.0
26/08:00pm 14.0 12.3 7.5 65 3.2 E 6 7 3 4 1017.9 1017.9 0.0
26/07:30pm 14.6 13.3 7.8 63 3.4 E 4 6 2 3 1018.1 1018.1 0.0
26/07:00pm 14.9 14.2 8.6 66 3.2 E 2 7 1 4 1018.3 1018.3 0.0
26/06:30pm 15.7 15.2 7.7 59 4.0 CALM 0 0 0 0 1018.2 1018.2 0.0
26/06:00pm 16.9 16.3 7.3 53 4.8 CALM 0 0 0 0 1018.0 1018.0 0.0
26/05:30pm 18.3 16.5 7.2 48 5.6 NNW 6 9 3 5 1017.9 1017.9 0.0
26/05:00pm 19.4 16.8 6.1 42 6.6 NW 9 17 5 9 1017.9 1017.9 0.0
26/04:30pm 20.1 16.5 5.2 37 7.3 NW 13 20 7 11 1018.0 1018.0 0.0
26/04:00pm 21.0 17.4 5.2 35 7.8 NW 13 24 7 13 1018.0 1018.0 0.0
26/03:30pm 21.3 17.8 5.4 35 7.9 NNW 13 20 7 11 1018.0 1018.0 0.0
26/03:00pm 21.6 18.2 5.8 35 7.9 NW 13 20 7 11 1018.1 1018.1 0.0
26/02:30pm 21.5 18.4 7.3 40 7.3 NW 13 24 7 13 1018.5 1018.5 0.0
26/02:00pm 21.5 19.8 9.8 47 6.3 NNW 9 17 5 9 1018.8 1018.8 0.0
26/01:30pm 20.9 19.3 10.2 50 5.8 NNW 9 17 5 9 1019.2 1019.2 0.0
26/01:00pm 20.9 19.4 10.4 51 5.7 NW 9 15 5 8 1019.7 1019.7 0.0
26/12:30pm 19.6 17.9 9.9 53 5.2 NW 9 19 5 10 1020.4 1020.3 0.0
26/12:00pm 19.2 17.4 10.7 58 4.6 N 11 20 6 11 1021.0 1020.9 0.0
26/11:30am 18.8 17.5 11.1 61 4.2 N 9 17 5 9 1021.6 1021.5 0.0
26/11:00am 17.9 16.7 11.5 66 3.5 NNE 9 15 5 8 1022.0 1021.9 0.0
26/10:30am 17.4 16.2 11.7 69 3.1 NNE 9 17 5 9 1022.5 1022.4 0.0
26/10:00am 16.8 15.8 12.2 74 2.5 N 9 13 5 7 1022.8 1022.7 0.0
26/09:30am 15.2 14.7 12.1 82 1.7 NE 6 9 3 5 1023.0 1022.9 0.0
26/09:00am 13.9 13.7 11.8 87 1.1 E 4 7 2 4 1023.1 1023.0 0.0
26/08:30am 13.7 13.5 11.8 88 1.0 N 4 7 2 4 1023.2 1023.1 0.0
26/08:00am 13.1 13.5 11.4 89 0.9 CALM 0 0 0 0 1023.0 1022.9 0.0
26/07:30am 12.7 13.1 11.2 91 0.8 CALM 0 0 0 0 1022.6 1022.5 0.0
26/07:00am 12.9 13.3 11.2 89 0.9 CALM 0 0 0 0 1022.6 1022.5 0.0
26/06:30am 13.5 13.2 11.4 87 1.1 N 4 9 2 5 1022.4 1022.3 0.0
26/06:00am 13.6 14.0 11.3 86 1.2 CALM 0 6 0 3 1022.2 1022.1 0.0
26/05:30am 13.8 13.5 11.5 86 1.2 NNE 4 7 2 4 1022.0 1021.9 0.0
26/05:00am 13.6 14.3 12.1 91 0.8 CALM 0 0 0 0 1022.1 1022.0 0.0
26/04:30am 13.4 14.0 11.9 91 0.8 CALM 0 0 0 0 1022.0 1021.9 0.0
26/04:00am 13.0 13.5 11.5 91 0.8 CALM 0 0 0 0 1022.1 1022.0 0.0
26/03:30am 12.7 13.1 11.4 92 0.7 CALM 0 0 0 0 1022.1 1022.0 0.0
26/03:00am 12.9 13.3 11.4 91 0.8 CALM 0 0 0 0 1022.2 1022.1 0.0
26/02:30am 13.5 12.8 11.4 87 1.1 NNE 6 9 3 5 1022.1 1022.0 0.0
26/02:00am 13.5 12.9 11.8 89 0.9 NE 6 9 3 5 1022.0 1021.9 0.0
26/01:30am 12.8 12.5 11.5 92 0.7 NE 4 7 2 4 1022.1 1022.0 0.0
26/01:00am 13.0 13.5 11.5 91 0.8 CALM 0 0 0 0 1022.3 1022.2 0.0
26/12:30am 13.2 13.7 11.5 89 0.9 CALM 0 0 0 0 1022.5 1022.4 0.0
26/12:00am 13.4 13.9 11.5 88 1.0 CALM 0 0 0 0 1022.6 1022.5 0.0
 
Date/Time
CST
Temp
°C
App
Temp
°C
Dew
Point
°C
Rel
Hum
%
Delta-T
°C
Wind Press
QNH
hPa
Press
MSL
hPa
Rain since
9am
mm
Dir  Spd
km/h
Gust
km/h
Spd
kts
Gust
kts
25/11:30pm 13.3 13.8 11.6 89 0.9 CALM 0 0 0 0 1022.6 1022.5 0.0
25/11:00pm 13.3 13.8 11.6 89 0.9 CALM 0 0 0 0 1022.6 1022.5 0.0
25/10:30pm 13.5 13.9 11.4 87 1.1 CALM 0 0 0 0 1022.7 1022.6 0.0
25/10:00pm 14.2 14.7 11.6 84 1.4 CALM 0 0 0 0 1022.7 1022.6 0.0
25/09:30pm 14.9 15.4 11.7 81 1.7 CALM 0 0 0 0 1022.6 1022.5 0.0
25/09:00pm 14.6 15.0 11.4 81 1.7 CALM 0 0 0 0 1022.5 1022.4 0.0
25/08:30pm 15.2 15.6 11.3 77 2.1 CALM 0 0 0 0 1022.3 1022.2 0.0
25/08:00pm 16.1 15.8 11.3 73 2.6 NE 4 7 2 4 1022.3 1022.2 0.0
25/07:30pm 16.1 16.1 11.3 73 2.6 NE 2 6 1 3 1022.3 1022.2 0.0
25/07:00pm 16.3 16.7 11.3 72 2.7 CALM 0 0 0 0 1022.3 1022.2 0.0
25/06:30pm 16.0 16.4 11.3 73 2.5 CALM 0 0 0 0 1022.1 1022.0 0.0
25/06:00pm 16.3 16.7 11.3 72 2.7 CALM 0 0 0 0 1021.8 1021.7 0.0
25/05:30pm 16.9 16.0 10.7 67 3.3 WNW 6 9 3 5 1021.6 1021.5 0.0
25/05:00pm 17.2 16.0 10.2 63 3.7 W 7 13 4 7 1021.3 1021.2 0.0
25/04:30pm 18.0 16.7 9.9 59 4.3 NW 7 13 4 7 1021.3 1021.2 0.0

Other Formats:

Comma delimited format used in spreadsheet applications
http://www.bom.gov.au/fwo/IDS60801/IDS60801.94675.axf

JavaScript Object Notation format (JSON) in row-major order
http://www.bom.gov.au/fwo/IDS60801/IDS60801.94675.json